sensor_id;sensor_type;location;lat;lon;timestamp;P1;durP1;ratioP1;P2;durP2;ratioP2
2191;SDS011;1102;49.718;11.902;2022-08-19T00:01:23;33.10;;;30.03;;
2191;SDS011;1102;49.718;11.902;2022-08-19T00:03:55;36.40;;;32.87;;
2191;SDS011;1102;49.718;11.902;2022-08-19T00:06:21;33.90;;;30.70;;
2191;SDS011;1102;49.718;11.902;2022-08-19T00:08:48;33.07;;;29.60;;
2191;SDS011;1102;49.718;11.902;2022-08-19T00:11:14;36.97;;;33.37;;
2191;SDS011;1102;49.718;11.902;2022-08-19T00:13:51;32.87;;;29.67;;
2191;SDS011;1102;49.718;11.902;2022-08-19T00:16:17;31.03;;;28.07;;
2191;SDS011;1102;49.718;11.902;2022-08-19T00:18:52;28.30;;;25.80;;
2191;SDS011;1102;49.718;11.902;2022-08-19T00:21:18;29.73;;;27.03;;
2191;SDS011;1102;49.718;11.902;2022-08-19T00:23:45;31.60;;;28.80;;
2191;SDS011;1102;49.718;11.902;2022-08-19T00:26:12;28.50;;;25.90;;
2191;SDS011;1102;49.718;11.902;2022-08-19T00:28:38;29.20;;;26.60;;
2191;SDS011;1102;49.718;11.902;2022-08-19T00:31:05;27.73;;;25.30;;
2191;SDS011;1102;49.718;11.902;2022-08-19T00:33:32;29.17;;;26.43;;
2191;SDS011;1102;49.718;11.902;2022-08-19T00:36:00;27.30;;;24.93;;
2191;SDS011;1102;49.718;11.902;2022-08-19T00:38:27;29.97;;;26.83;;
2191;SDS011;1102;49.718;11.902;2022-08-19T00:41:03;26.13;;;23.73;;
2191;SDS011;1102;49.718;11.902;2022-08-19T00:43:29;24.57;;;22.37;;
2191;SDS011;1102;49.718;11.902;2022-08-19T00:45:56;25.47;;;23.17;;
2191;SDS011;1102;49.718;11.902;2022-08-19T00:48:22;26.33;;;23.87;;
2191;SDS011;1102;49.718;11.902;2022-08-19T00:50:50;25.50;;;23.10;;
2191;SDS011;1102;49.718;11.902;2022-08-19T00:53:18;25.07;;;22.97;;
2191;SDS011;1102;49.718;11.902;2022-08-19T00:55:46;23.73;;;21.50;;
2191;SDS011;1102;49.718;11.902;2022-08-19T00:58:17;21.10;;;19.23;;
2191;SDS011;1102;49.718;11.902;2022-08-19T01:00:45;20.73;;;18.93;;
2191;SDS011;1102;49.718;11.902;2022-08-19T01:03:13;21.67;;;19.77;;
2191;SDS011;1102;49.718;11.902;2022-08-19T01:05:44;22.73;;;20.53;;
2191;SDS011;1102;49.718;11.902;2022-08-19T01:08:11;19.87;;;18.07;;
2191;SDS011;1102;49.718;11.902;2022-08-19T01:10:43;21.43;;;19.60;;
2191;SDS011;1102;49.718;11.902;2022-08-19T01:13:11;21.63;;;19.53;;
2191;SDS011;1102;49.718;11.902;2022-08-19T01:15:40;21.27;;;19.10;;
2191;SDS011;1102;49.718;11.902;2022-08-19T01:18:08;22.67;;;20.50;;
2191;SDS011;1102;49.718;11.902;2022-08-19T01:20:35;22.03;;;20.13;;
2191;SDS011;1102;49.718;11.902;2022-08-19T01:23:02;19.90;;;18.00;;
2191;SDS011;1102;49.718;11.902;2022-08-19T01:25:35;19.53;;;17.83;;
2191;SDS011;1102;49.718;11.902;2022-08-19T01:28:04;21.10;;;19.20;;
2191;SDS011;1102;49.718;11.902;2022-08-19T01:30:36;20.73;;;18.83;;
2191;SDS011;1102;49.718;11.902;2022-08-19T01:33:03;21.20;;;19.20;;
2191;SDS011;1102;49.718;11.902;2022-08-19T01:35:32;20.77;;;18.90;;
2191;SDS011;1102;49.718;11.902;2022-08-19T01:38:00;22.00;;;20.10;;
2191;SDS011;1102;49.718;11.902;2022-08-19T01:40:29;20.30;;;18.50;;
2191;SDS011;1102;49.718;11.902;2022-08-19T01:42:56;20.40;;;18.50;;
2191;SDS011;1102;49.718;11.902;2022-08-19T01:45:23;20.70;;;18.80;;
2191;SDS011;1102;49.718;11.902;2022-08-19T01:47:51;20.20;;;18.57;;
2191;SDS011;1102;49.718;11.902;2022-08-19T01:50:28;19.27;;;17.50;;
2191;SDS011;1102;49.718;11.902;2022-08-19T01:52:55;23.10;;;21.13;;
2191;SDS011;1102;49.718;11.902;2022-08-19T01:55:29;20.83;;;19.03;;
2191;SDS011;1102;49.718;11.902;2022-08-19T01:57:56;20.40;;;18.50;;
2191;SDS011;1102;49.718;11.902;2022-08-19T02:00:24;20.70;;;19.03;;
2191;SDS011;1102;49.718;11.902;2022-08-19T02:02:52;19.93;;;18.20;;
2191;SDS011;1102;49.718;11.902;2022-08-19T02:05:19;21.40;;;19.40;;
2191;SDS011;1102;49.718;11.902;2022-08-19T02:07:47;20.27;;;18.50;;
2191;SDS011;1102;49.718;11.902;2022-08-19T02:10:16;19.50;;;17.80;;
2191;SDS011;1102;49.718;11.902;2022-08-19T02:12:43;19.60;;;17.93;;
2191;SDS011;1102;49.718;11.902;2022-08-19T02:15:10;21.53;;;19.63;;
2191;SDS011;1102;49.718;11.902;2022-08-19T02:17:36;21.77;;;19.57;;
2191;SDS011;1102;49.718;11.902;2022-08-19T02:20:03;20.00;;;18.37;;
2191;SDS011;1102;49.718;11.902;2022-08-19T02:22:30;21.87;;;19.90;;
2191;SDS011;1102;49.718;11.902;2022-08-19T02:24:57;22.83;;;20.70;;
2191;SDS011;1102;49.718;11.902;2022-08-19T02:27:23;18.87;;;17.27;;
2191;SDS011;1102;49.718;11.902;2022-08-19T02:29:50;19.00;;;17.50;;
2191;SDS011;1102;49.718;11.902;2022-08-19T02:32:17;19.40;;;17.60;;
2191;SDS011;1102;49.718;11.902;2022-08-19T02:34:46;20.23;;;18.40;;
2191;SDS011;1102;49.718;11.902;2022-08-19T02:37:13;18.90;;;17.30;;
2191;SDS011;1102;49.718;11.902;2022-08-19T02:40:00;17.80;;;16.13;;
2191;SDS011;1102;49.718;11.902;2022-08-19T02:42:28;20.23;;;18.53;;
2191;SDS011;1102;49.718;11.902;2022-08-19T02:44:55;21.80;;;19.77;;
2191;SDS011;1102;49.718;11.902;2022-08-19T02:47:22;19.30;;;17.60;;
2191;SDS011;1102;49.718;11.902;2022-08-19T02:49:48;18.80;;;17.30;;
2191;SDS011;1102;49.718;11.902;2022-08-19T02:52:16;19.80;;;18.00;;
2191;SDS011;1102;49.718;11.902;2022-08-19T02:54:43;19.30;;;17.60;;
2191;SDS011;1102;49.718;11.902;2022-08-19T02:57:10;18.90;;;16.97;;
2191;SDS011;1102;49.718;11.902;2022-08-19T02:59:36;19.53;;;17.93;;
2191;SDS011;1102;49.718;11.902;2022-08-19T03:02:03;18.33;;;16.83;;
2191;SDS011;1102;49.718;11.902;2022-08-19T03:04:30;20.53;;;18.60;;
2191;SDS011;1102;49.718;11.902;2022-08-19T03:06:56;19.97;;;18.17;;
2191;SDS011;1102;49.718;11.902;2022-08-19T03:09:36;20.07;;;18.37;;
2191;SDS011;1102;49.718;11.902;2022-08-19T03:12:03;17.60;;;16.10;;
2191;SDS011;1102;49.718;11.902;2022-08-19T03:14:31;19.37;;;17.57;;
2191;SDS011;1102;49.718;11.902;2022-08-19T03:16:57;22.17;;;20.07;;
2191;SDS011;1102;49.718;11.902;2022-08-19T03:19:24;22.60;;;20.50;;
2191;SDS011;1102;49.718;11.902;2022-08-19T03:21:51;24.60;;;22.20;;
2191;SDS011;1102;49.718;11.902;2022-08-19T03:24:18;25.80;;;23.30;;
2191;SDS011;1102;49.718;11.902;2022-08-19T03:26:49;26.80;;;24.00;;
2191;SDS011;1102;49.718;11.902;2022-08-19T03:29:16;25.90;;;23.30;;
2191;SDS011;1102;49.718;11.902;2022-08-19T03:31:55;26.83;;;24.23;;
2191;SDS011;1102;49.718;11.902;2022-08-19T03:34:27;26.33;;;23.63;;
2191;SDS011;1102;49.718;11.902;2022-08-19T03:36:58;28.67;;;25.87;;
2191;SDS011;1102;49.718;11.902;2022-08-19T03:39:26;25.93;;;23.37;;
2191;SDS011;1102;49.718;11.902;2022-08-19T03:41:53;26.03;;;23.63;;
2191;SDS011;1102;49.718;11.902;2022-08-19T03:44:43;26.80;;;24.27;;
2191;SDS011;1102;49.718;11.902;2022-08-19T03:47:11;30.67;;;27.57;;
2191;SDS011;1102;49.718;11.902;2022-08-19T03:49:42;31.90;;;28.60;;
2191;SDS011;1102;49.718;11.902;2022-08-19T03:52:09;27.37;;;24.43;;
2191;SDS011;1102;49.718;11.902;2022-08-19T03:54:35;28.93;;;25.97;;
2191;SDS011;1102;49.718;11.902;2022-08-19T03:57:02;29.10;;;26.20;;
2191;SDS011;1102;49.718;11.902;2022-08-19T03:59:30;29.20;;;26.17;;
2191;SDS011;1102;49.718;11.902;2022-08-19T04:01:58;27.43;;;24.80;;
2191;SDS011;1102;49.718;11.902;2022-08-19T04:04:24;27.90;;;25.00;;
2191;SDS011;1102;49.718;11.902;2022-08-19T04:06:55;27.40;;;24.90;;
2191;SDS011;1102;49.718;11.902;2022-08-19T04:09:21;29.40;;;24.60;;
2191;SDS011;1102;49.718;11.902;2022-08-19T04:11:49;28.20;;;25.40;;
2191;SDS011;1102;49.718;11.902;2022-08-19T04:14:18;26.90;;;24.20;;
2191;SDS011;1102;49.718;11.902;2022-08-19T04:16:45;25.23;;;22.83;;
2191;SDS011;1102;49.718;11.902;2022-08-19T04:19:13;27.23;;;24.63;;
2191;SDS011;1102;49.718;11.902;2022-08-19T04:21:42;25.53;;;23.20;;
2191;SDS011;1102;49.718;11.902;2022-08-19T04:24:09;26.83;;;24.23;;
2191;SDS011;1102;49.718;11.902;2022-08-19T04:26:36;25.90;;;23.53;;
2191;SDS011;1102;49.718;11.902;2022-08-19T04:29:04;27.20;;;24.60;;
2191;SDS011;1102;49.718;11.902;2022-08-19T04:31:37;24.87;;;22.67;;
2191;SDS011;1102;49.718;11.902;2022-08-19T04:34:05;23.50;;;21.30;;
2191;SDS011;1102;49.718;11.902;2022-08-19T04:36:33;25.27;;;22.87;;
2191;SDS011;1102;49.718;11.902;2022-08-19T04:39:03;25.83;;;23.23;;
2191;SDS011;1102;49.718;11.902;2022-08-19T04:41:30;23.10;;;20.90;;
2191;SDS011;1102;49.718;11.902;2022-08-19T04:44:15;22.57;;;20.53;;
2191;SDS011;1102;49.718;11.902;2022-08-19T04:46:47;23.80;;;21.70;;
2191;SDS011;1102;49.718;11.902;2022-08-19T04:49:17;23.47;;;21.27;;
2191;SDS011;1102;49.718;11.902;2022-08-19T04:51:45;23.37;;;21.00;;
2191;SDS011;1102;49.718;11.902;2022-08-19T04:54:14;24.47;;;22.27;;
2191;SDS011;1102;49.718;11.902;2022-08-19T04:56:54;23.13;;;21.03;;
2191;SDS011;1102;49.718;11.902;2022-08-19T04:59:20;24.10;;;21.90;;
2191;SDS011;1102;49.718;11.902;2022-08-19T05:01:47;23.43;;;21.23;;
2191;SDS011;1102;49.718;11.902;2022-08-19T05:04:19;23.27;;;21.10;;
2191;SDS011;1102;49.718;11.902;2022-08-19T05:06:47;23.67;;;21.17;;
2191;SDS011;1102;49.718;11.902;2022-08-19T05:09:14;22.27;;;20.33;;
2191;SDS011;1102;49.718;11.902;2022-08-19T05:11:41;24.90;;;22.53;;
2191;SDS011;1102;49.718;11.902;2022-08-19T05:14:08;22.30;;;20.20;;
2191;SDS011;1102;49.718;11.902;2022-08-19T05:16:35;24.43;;;22.03;;
2191;SDS011;1102;49.718;11.902;2022-08-19T05:19:02;22.87;;;20.77;;
2191;SDS011;1102;49.718;11.902;2022-08-19T05:21:47;24.10;;;21.80;;
2191;SDS011;1102;49.718;11.902;2022-08-19T05:24:32;22.10;;;20.07;;
2191;SDS011;1102;49.718;11.902;2022-08-19T05:27:21;22.10;;;20.10;;
2191;SDS011;1102;49.718;11.902;2022-08-19T05:29:48;22.97;;;20.87;;
2191;SDS011;1102;49.718;11.902;2022-08-19T05:32:14;22.33;;;19.83;;
2191;SDS011;1102;49.718;11.902;2022-08-19T05:34:41;24.60;;;22.17;;
2191;SDS011;1102;49.718;11.902;2022-08-19T05:37:08;23.70;;;21.70;;
2191;SDS011;1102;49.718;11.902;2022-08-19T05:39:35;23.27;;;21.00;;
2191;SDS011;1102;49.718;11.902;2022-08-19T05:42:06;23.80;;;21.27;;
2191;SDS011;1102;49.718;11.902;2022-08-19T05:44:34;23.57;;;21.10;;
2191;SDS011;1102;49.718;11.902;2022-08-19T05:47:02;26.83;;;24.13;;
2191;SDS011;1102;49.718;11.902;2022-08-19T05:49:29;23.30;;;20.90;;
2191;SDS011;1102;49.718;11.902;2022-08-19T05:51:56;23.27;;;21.13;;
2191;SDS011;1102;49.718;11.902;2022-08-19T05:54:22;24.20;;;22.10;;
2191;SDS011;1102;49.718;11.902;2022-08-19T05:56:50;24.77;;;22.47;;
2191;SDS011;1102;49.718;11.902;2022-08-19T05:59:18;22.77;;;20.77;;
2191;SDS011;1102;49.718;11.902;2022-08-19T06:01:46;22.63;;;20.63;;
2191;SDS011;1102;49.718;11.902;2022-08-19T06:04:12;22.53;;;20.43;;
2191;SDS011;1102;49.718;11.902;2022-08-19T06:06:45;23.77;;;21.40;;
2191;SDS011;1102;49.718;11.902;2022-08-19T06:09:12;21.80;;;19.83;;
2191;SDS011;1102;49.718;11.902;2022-08-19T06:11:45;22.93;;;21.03;;
2191;SDS011;1102;49.718;11.902;2022-08-19T06:14:14;24.70;;;22.37;;
2191;SDS011;1102;49.718;11.902;2022-08-19T06:16:42;25.07;;;22.67;;
2191;SDS011;1102;49.718;11.902;2022-08-19T06:19:10;24.40;;;21.90;;
2191;SDS011;1102;49.718;11.902;2022-08-19T06:21:37;24.53;;;22.27;;
2191;SDS011;1102;49.718;11.902;2022-08-19T06:24:05;23.17;;;20.87;;
2191;SDS011;1102;49.718;11.902;2022-08-19T06:26:34;22.90;;;20.70;;
2191;SDS011;1102;49.718;11.902;2022-08-19T06:29:01;22.40;;;20.27;;
2191;SDS011;1102;49.718;11.902;2022-08-19T06:31:29;21.67;;;19.33;;
2191;SDS011;1102;49.718;11.902;2022-08-19T06:33:57;23.17;;;21.07;;
2191;SDS011;1102;49.718;11.902;2022-08-19T06:36:29;26.27;;;23.73;;
2191;SDS011;1102;49.718;11.902;2022-08-19T06:39:05;24.73;;;22.27;;
2191;SDS011;1102;49.718;11.902;2022-08-19T06:41:34;23.43;;;21.30;;
2191;SDS011;1102;49.718;11.902;2022-08-19T06:44:10;24.10;;;21.70;;
2191;SDS011;1102;49.718;11.902;2022-08-19T06:46:39;22.90;;;20.73;;
2191;SDS011;1102;49.718;11.902;2022-08-19T06:49:06;23.17;;;20.80;;
2191;SDS011;1102;49.718;11.902;2022-08-19T06:51:36;25.00;;;22.50;;
2191;SDS011;1102;49.718;11.902;2022-08-19T06:54:09;24.00;;;21.57;;
2191;SDS011;1102;49.718;11.902;2022-08-19T06:56:45;24.10;;;21.63;;
2191;SDS011;1102;49.718;11.902;2022-08-19T06:59:14;25.43;;;22.70;;
2191;SDS011;1102;49.718;11.902;2022-08-19T07:01:45;22.77;;;20.57;;
2191;SDS011;1102;49.718;11.902;2022-08-19T07:04:14;24.00;;;21.83;;
2191;SDS011;1102;49.718;11.902;2022-08-19T07:06:42;24.00;;;21.40;;
2191;SDS011;1102;49.718;11.902;2022-08-19T07:09:11;21.70;;;19.50;;
2191;SDS011;1102;49.718;11.902;2022-08-19T07:11:41;26.40;;;23.70;;
2191;SDS011;1102;49.718;11.902;2022-08-19T07:14:11;23.70;;;21.43;;
2191;SDS011;1102;49.718;11.902;2022-08-19T07:16:46;22.77;;;20.37;;
2191;SDS011;1102;49.718;11.902;2022-08-19T07:19:13;23.20;;;21.00;;
2191;SDS011;1102;49.718;11.902;2022-08-19T07:21:45;22.87;;;20.70;;
2191;SDS011;1102;49.718;11.902;2022-08-19T07:24:12;23.47;;;21.13;;
2191;SDS011;1102;49.718;11.902;2022-08-19T07:26:45;22.10;;;19.90;;
2191;SDS011;1102;49.718;11.902;2022-08-19T07:29:17;23.87;;;21.37;;
2191;SDS011;1102;49.718;11.902;2022-08-19T07:31:44;22.17;;;19.93;;
2191;SDS011;1102;49.718;11.902;2022-08-19T07:34:12;23.77;;;21.27;;
2191;SDS011;1102;49.718;11.902;2022-08-19T07:36:41;22.20;;;20.03;;
2191;SDS011;1102;49.718;11.902;2022-08-19T07:39:10;25.10;;;20.13;;
2191;SDS011;1102;49.718;11.902;2022-08-19T07:41:37;20.10;;;18.20;;
2191;SDS011;1102;49.718;11.902;2022-08-19T07:44:05;21.23;;;19.27;;
2191;SDS011;1102;49.718;11.902;2022-08-19T07:46:35;21.27;;;19.27;;
2191;SDS011;1102;49.718;11.902;2022-08-19T07:49:04;21.47;;;19.40;;
2191;SDS011;1102;49.718;11.902;2022-08-19T07:51:32;22.07;;;20.07;;
2191;SDS011;1102;49.718;11.902;2022-08-19T07:54:02;19.80;;;17.90;;
2191;SDS011;1102;49.718;11.902;2022-08-19T07:56:29;22.33;;;19.47;;
2191;SDS011;1102;49.718;11.902;2022-08-19T07:58:57;19.30;;;16.83;;
2191;SDS011;1102;49.718;11.902;2022-08-19T08:01:27;20.00;;;17.90;;
2191;SDS011;1102;49.718;11.902;2022-08-19T08:03:56;19.50;;;17.63;;
2191;SDS011;1102;49.718;11.902;2022-08-19T08:06:42;21.10;;;18.80;;
2191;SDS011;1102;49.718;11.902;2022-08-19T08:09:33;20.50;;;17.80;;
2191;SDS011;1102;49.718;11.902;2022-08-19T08:12:15;20.67;;;18.77;;
2191;SDS011;1102;49.718;11.902;2022-08-19T08:15:00;21.00;;;19.13;;
2191;SDS011;1102;49.718;11.902;2022-08-19T08:17:33;19.13;;;17.33;;
2191;SDS011;1102;49.718;11.902;2022-08-19T08:20:17;19.33;;;17.50;;
2191;SDS011;1102;49.718;11.902;2022-08-19T08:22:44;20.60;;;18.57;;
2191;SDS011;1102;49.718;11.902;2022-08-19T08:25:30;18.67;;;16.87;;
2191;SDS011;1102;49.718;11.902;2022-08-19T08:27:57;19.37;;;17.67;;
2191;SDS011;1102;49.718;11.902;2022-08-19T08:30:27;18.13;;;16.53;;
2191;SDS011;1102;49.718;11.902;2022-08-19T08:32:57;16.50;;;14.97;;
2191;SDS011;1102;49.718;11.902;2022-08-19T08:35:24;16.37;;;14.87;;
2191;SDS011;1102;49.718;11.902;2022-08-19T08:37:51;14.77;;;13.47;;
2191;SDS011;1102;49.718;11.902;2022-08-19T08:42:55;16.27;;;14.70;;
2191;SDS011;1102;49.718;11.902;2022-08-19T08:45:32;16.03;;;14.57;;
2191;SDS011;1102;49.718;11.902;2022-08-19T08:48:13;15.13;;;13.63;;
2191;SDS011;1102;49.718;11.902;2022-08-19T08:50:49;15.40;;;14.10;;
2191;SDS011;1102;49.718;11.902;2022-08-19T08:53:19;16.00;;;14.53;;
2191;SDS011;1102;49.718;11.902;2022-08-19T08:55:55;18.13;;;16.50;;
2191;SDS011;1102;49.718;11.902;2022-08-19T08:58:31;17.10;;;15.70;;
2191;SDS011;1102;49.718;11.902;2022-08-19T09:00:59;17.10;;;14.50;;
2191;SDS011;1102;49.718;11.902;2022-08-19T09:03:29;17.73;;;16.03;;
2191;SDS011;1102;49.718;11.902;2022-08-19T09:06:00;15.90;;;14.50;;
2191;SDS011;1102;49.718;11.902;2022-08-19T09:08:32;17.47;;;15.90;;
2191;SDS011;1102;49.718;11.902;2022-08-19T09:11:00;17.70;;;16.10;;
2191;SDS011;1102;49.718;11.902;2022-08-19T09:16:17;16.17;;;14.70;;
2191;SDS011;1102;49.718;11.902;2022-08-19T09:18:50;18.40;;;16.80;;
2191;SDS011;1102;49.718;11.902;2022-08-19T09:21:21;19.90;;;18.00;;
2191;SDS011;1102;49.718;11.902;2022-08-19T09:23:58;17.50;;;16.00;;
2191;SDS011;1102;49.718;11.902;2022-08-19T09:26:25;16.37;;;14.67;;
2191;SDS011;1102;49.718;11.902;2022-08-19T09:29:12;17.07;;;15.47;;
2191;SDS011;1102;49.718;11.902;2022-08-19T09:31:39;16.87;;;15.20;;
2191;SDS011;1102;49.718;11.902;2022-08-19T09:34:06;17.37;;;15.87;;
2191;SDS011;1102;49.718;11.902;2022-08-19T09:36:46;14.67;;;13.27;;
2191;SDS011;1102;49.718;11.902;2022-08-19T09:39:13;15.07;;;13.67;;
2191;SDS011;1102;49.718;11.902;2022-08-19T09:41:41;14.63;;;13.33;;
2191;SDS011;1102;49.718;11.902;2022-08-19T09:44:12;13.80;;;12.50;;
2191;SDS011;1102;49.718;11.902;2022-08-19T09:46:39;13.27;;;12.10;;
2191;SDS011;1102;49.718;11.902;2022-08-19T09:49:05;14.30;;;12.90;;
2191;SDS011;1102;49.718;11.902;2022-08-19T09:51:32;13.40;;;12.30;;
2191;SDS011;1102;49.718;11.902;2022-08-19T09:54:01;14.47;;;13.07;;
2191;SDS011;1102;49.718;11.902;2022-08-19T09:56:30;13.50;;;12.30;;
2191;SDS011;1102;49.718;11.902;2022-08-19T09:58:58;15.27;;;13.97;;
2191;SDS011;1102;49.718;11.902;2022-08-19T10:01:27;14.70;;;13.40;;
2191;SDS011;1102;49.718;11.902;2022-08-19T10:03:55;14.10;;;12.80;;
2191;SDS011;1102;49.718;11.902;2022-08-19T10:06:22;17.47;;;15.83;;
2191;SDS011;1102;49.718;11.902;2022-08-19T10:09:09;16.30;;;14.80;;
2191;SDS011;1102;49.718;11.902;2022-08-19T10:11:39;16.90;;;15.20;;
2191;SDS011;1102;49.718;11.902;2022-08-19T10:14:18;15.80;;;14.40;;
2191;SDS011;1102;49.718;11.902;2022-08-19T10:16:49;16.63;;;15.13;;
2191;SDS011;1102;49.718;11.902;2022-08-19T10:19:16;14.97;;;13.70;;
2191;SDS011;1102;49.718;11.902;2022-08-19T10:21:51;17.27;;;15.57;;
2191;SDS011;1102;49.718;11.902;2022-08-19T10:24:18;15.07;;;13.67;;
2191;SDS011;1102;49.718;11.902;2022-08-19T10:26:46;14.83;;;13.43;;
2191;SDS011;1102;49.718;11.902;2022-08-19T10:29:24;18.63;;;16.77;;
2191;SDS011;1102;49.718;11.902;2022-08-19T10:31:59;16.70;;;15.10;;
2191;SDS011;1102;49.718;11.902;2022-08-19T10:34:28;15.53;;;14.20;;
2191;SDS011;1102;49.718;11.902;2022-08-19T10:36:55;14.63;;;13.33;;
2191;SDS011;1102;49.718;11.902;2022-08-19T10:39:28;15.40;;;14.03;;
2191;SDS011;1102;49.718;11.902;2022-08-19T10:42:08;16.37;;;14.97;;
2191;SDS011;1102;49.718;11.902;2022-08-19T10:44:37;16.00;;;14.43;;
2191;SDS011;1102;49.718;11.902;2022-08-19T10:47:03;14.73;;;13.50;;
2191;SDS011;1102;49.718;11.902;2022-08-19T10:49:43;16.73;;;15.27;;
2191;SDS011;1102;49.718;11.902;2022-08-19T10:52:28;13.23;;;12.03;;
2191;SDS011;1102;49.718;11.902;2022-08-19T10:55:04;15.30;;;13.90;;
2191;SDS011;1102;49.718;11.902;2022-08-19T10:57:54;14.00;;;12.60;;
2191;SDS011;1102;49.718;11.902;2022-08-19T11:00:28;13.83;;;12.63;;
2191;SDS011;1102;49.718;11.902;2022-08-19T11:02:57;14.30;;;13.00;;
2191;SDS011;1102;49.718;11.902;2022-08-19T11:05:23;12.70;;;11.60;;
2191;SDS011;1102;49.718;11.902;2022-08-19T11:07:50;12.70;;;11.40;;
2191;SDS011;1102;49.718;11.902;2022-08-19T11:10:18;15.00;;;13.70;;
2191;SDS011;1102;49.718;11.902;2022-08-19T11:12:47;14.73;;;13.40;;
2191;SDS011;1102;49.718;11.902;2022-08-19T11:15:14;12.27;;;11.20;;
2191;SDS011;1102;49.718;11.902;2022-08-19T11:17:41;13.23;;;12.10;;
2191;SDS011;1102;49.718;11.902;2022-08-19T11:20:10;15.67;;;14.27;;
2191;SDS011;1102;49.718;11.902;2022-08-19T11:22:39;14.33;;;13.07;;
2191;SDS011;1102;49.718;11.902;2022-08-19T11:25:08;14.13;;;12.73;;
2191;SDS011;1102;49.718;11.902;2022-08-19T11:27:39;13.97;;;12.83;;
2191;SDS011;1102;49.718;11.902;2022-08-19T11:30:08;15.20;;;13.90;;
2191;SDS011;1102;49.718;11.902;2022-08-19T11:32:41;18.37;;;16.63;;
2191;SDS011;1102;49.718;11.902;2022-08-19T11:35:15;16.37;;;14.80;;
2191;SDS011;1102;49.718;11.902;2022-08-19T11:37:42;17.40;;;15.83;;
2191;SDS011;1102;49.718;11.902;2022-08-19T11:40:09;17.07;;;15.53;;
2191;SDS011;1102;49.718;11.902;2022-08-19T11:42:37;19.20;;;17.47;;
2191;SDS011;1102;49.718;11.902;2022-08-19T11:45:23;16.40;;;14.90;;
2191;SDS011;1102;49.718;11.902;2022-08-19T11:47:50;19.53;;;17.73;;
2191;SDS011;1102;49.718;11.902;2022-08-19T11:50:16;17.73;;;16.33;;
2191;SDS011;1102;49.718;11.902;2022-08-19T11:52:44;17.70;;;16.23;;
2191;SDS011;1102;49.718;11.902;2022-08-19T11:55:13;17.70;;;16.10;;
2191;SDS011;1102;49.718;11.902;2022-08-19T11:57:39;17.80;;;16.30;;
2191;SDS011;1102;49.718;11.902;2022-08-19T12:00:08;19.70;;;17.77;;
2191;SDS011;1102;49.718;11.902;2022-08-19T12:02:35;19.23;;;17.60;;
2191;SDS011;1102;49.718;11.902;2022-08-19T12:05:05;18.50;;;16.80;;
2191;SDS011;1102;49.718;11.902;2022-08-19T12:07:38;16.90;;;15.40;;
2191;SDS011;1102;49.718;11.902;2022-08-19T12:10:05;17.67;;;16.07;;
2191;SDS011;1102;49.718;11.902;2022-08-19T12:12:34;15.13;;;13.80;;
2191;SDS011;1102;49.718;11.902;2022-08-19T12:15:01;16.67;;;14.87;;
2191;SDS011;1102;49.718;11.902;2022-08-19T12:17:28;16.90;;;15.43;;
2191;SDS011;1102;49.718;11.902;2022-08-19T12:19:57;17.40;;;15.90;;
2191;SDS011;1102;49.718;11.902;2022-08-19T12:22:23;16.00;;;13.43;;
2191;SDS011;1102;49.718;11.902;2022-08-19T12:24:50;17.43;;;15.83;;
2191;SDS011;1102;49.718;11.902;2022-08-19T12:27:19;14.50;;;13.00;;
2191;SDS011;1102;49.718;11.902;2022-08-19T12:30:07;14.00;;;12.70;;
2191;SDS011;1102;49.718;11.902;2022-08-19T12:32:35;14.90;;;13.50;;
2191;SDS011;1102;49.718;11.902;2022-08-19T12:35:02;17.03;;;15.30;;
2191;SDS011;1102;49.718;11.902;2022-08-19T12:37:30;15.00;;;13.70;;
2191;SDS011;1102;49.718;11.902;2022-08-19T12:39:59;14.37;;;12.97;;
2191;SDS011;1102;49.718;11.902;2022-08-19T12:42:26;19.50;;;12.97;;
2191;SDS011;1102;49.718;11.902;2022-08-19T12:44:53;15.37;;;13.97;;
2191;SDS011;1102;49.718;11.902;2022-08-19T12:47:20;14.07;;;12.73;;
2191;SDS011;1102;49.718;11.902;2022-08-19T12:49:47;14.83;;;13.47;;
2191;SDS011;1102;49.718;11.902;2022-08-19T12:52:24;14.23;;;13.03;;
2191;SDS011;1102;49.718;11.902;2022-08-19T12:54:51;15.17;;;13.77;;
2191;SDS011;1102;49.718;11.902;2022-08-19T12:57:20;14.30;;;13.10;;
2191;SDS011;1102;49.718;11.902;2022-08-19T12:59:51;16.20;;;14.60;;
2191;SDS011;1102;49.718;11.902;2022-08-19T13:02:19;15.37;;;14.07;;
2191;SDS011;1102;49.718;11.902;2022-08-19T13:04:46;14.87;;;13.53;;
2191;SDS011;1102;49.718;11.902;2022-08-19T13:07:12;17.90;;;16.00;;
2191;SDS011;1102;49.718;11.902;2022-08-19T13:09:39;14.83;;;13.53;;
2191;SDS011;1102;49.718;11.902;2022-08-19T13:12:08;16.60;;;15.03;;
2191;SDS011;1102;49.718;11.902;2022-08-19T13:14:39;16.43;;;14.90;;
2191;SDS011;1102;49.718;11.902;2022-08-19T13:17:07;18.50;;;16.80;;
2191;SDS011;1102;49.718;11.902;2022-08-19T13:19:38;16.47;;;14.87;;
2191;SDS011;1102;49.718;11.902;2022-08-19T13:22:07;16.67;;;15.00;;
2191;SDS011;1102;49.718;11.902;2022-08-19T13:24:40;15.40;;;13.90;;
2191;SDS011;1102;49.718;11.902;2022-08-19T13:27:12;14.53;;;13.13;;
2191;SDS011;1102;49.718;11.902;2022-08-19T13:29:40;16.53;;;14.80;;
2191;SDS011;1102;49.718;11.902;2022-08-19T13:32:28;15.37;;;13.90;;
2191;SDS011;1102;49.718;11.902;2022-08-19T13:35:14;15.13;;;13.70;;
2191;SDS011;1102;49.718;11.902;2022-08-19T13:37:43;13.50;;;12.40;;
2191;SDS011;1102;49.718;11.902;2022-08-19T13:40:12;15.57;;;14.07;;
2191;SDS011;1102;49.718;11.902;2022-08-19T13:42:42;16.43;;;15.03;;
2191;SDS011;1102;49.718;11.902;2022-08-19T13:45:09;14.87;;;13.47;;
2191;SDS011;1102;49.718;11.902;2022-08-19T13:47:37;15.77;;;14.30;;
2191;SDS011;1102;49.718;11.902;2022-08-19T13:50:11;17.67;;;15.80;;
2191;SDS011;1102;49.718;11.902;2022-08-19T13:52:39;15.73;;;14.13;;
2191;SDS011;1102;49.718;11.902;2022-08-19T13:55:06;17.77;;;15.87;;
2191;SDS011;1102;49.718;11.902;2022-08-19T13:57:34;15.27;;;13.70;;
2191;SDS011;1102;49.718;11.902;2022-08-19T14:00:03;14.50;;;13.00;;
2191;SDS011;1102;49.718;11.902;2022-08-19T14:02:30;16.00;;;14.40;;
2191;SDS011;1102;49.718;11.902;2022-08-19T14:04:58;13.50;;;12.20;;
2191;SDS011;1102;49.718;11.902;2022-08-19T14:07:25;10.73;;;9.67;;
2191;SDS011;1102;49.718;11.902;2022-08-19T14:09:53;10.00;;;9.10;;
2191;SDS011;1102;49.718;11.902;2022-08-19T14:12:20;8.57;;;7.87;;
2191;SDS011;1102;49.718;11.902;2022-08-19T14:14:54;7.83;;;7.23;;
2191;SDS011;1102;49.718;11.902;2022-08-19T14:17:21;11.80;;;7.67;;
2191;SDS011;1102;49.718;11.902;2022-08-19T14:19:48;7.47;;;6.77;;
2191;SDS011;1102;49.718;11.902;2022-08-19T14:22:15;6.87;;;6.27;;
2191;SDS011;1102;49.718;11.902;2022-08-19T14:24:47;7.63;;;7.03;;
2191;SDS011;1102;49.718;11.902;2022-08-19T14:27:15;6.90;;;6.30;;
2191;SDS011;1102;49.718;11.902;2022-08-19T14:29:42;7.00;;;6.50;;
2191;SDS011;1102;49.718;11.902;2022-08-19T14:32:09;5.80;;;5.30;;
2191;SDS011;1102;49.718;11.902;2022-08-19T14:34:42;6.90;;;6.20;;
2191;SDS011;1102;49.718;11.902;2022-08-19T14:37:08;6.53;;;5.93;;
2191;SDS011;1102;49.718;11.902;2022-08-19T14:39:43;6.93;;;6.33;;
2191;SDS011;1102;49.718;11.902;2022-08-19T14:42:11;6.40;;;5.87;;
2191;SDS011;1102;49.718;11.902;2022-08-19T14:44:41;7.00;;;6.30;;
2191;SDS011;1102;49.718;11.902;2022-08-19T14:47:07;7.13;;;6.53;;
2191;SDS011;1102;49.718;11.902;2022-08-19T14:49:35;8.10;;;6.90;;
2191;SDS011;1102;49.718;11.902;2022-08-19T14:52:10;6.27;;;5.77;;
2191;SDS011;1102;49.718;11.902;2022-08-19T14:54:36;7.50;;;6.80;;
2191;SDS011;1102;49.718;11.902;2022-08-19T14:57:03;7.00;;;6.47;;